sensor_id;sensor_type;location;lat;lon;timestamp;pressure;altitude;pressure_sealevel;temperature;humidity
68889;BME280;55930;47.412;8.790;2022-07-29T00:00:37;94574.47;;;15.90;95.20
68889;BME280;55930;47.412;8.790;2022-07-29T00:03:03;94567.88;;;16.02;94.51
68889;BME280;55930;47.412;8.790;2022-07-29T00:05:28;94567.13;;;16.01;93.75
68889;BME280;55930;47.412;8.790;2022-07-29T00:07:54;94565.00;;;15.83;95.06
68889;BME280;55930;47.412;8.790;2022-07-29T00:10:19;94570.63;;;15.74;95.65
68889;BME280;55930;47.412;8.790;2022-07-29T00:12:45;94562.38;;;15.78;95.79
68889;BME280;55930;47.412;8.790;2022-07-29T00:15:11;94566.22;;;15.82;95.09
68889;BME280;55930;47.412;8.790;2022-07-29T00:17:38;94554.34;;;15.78;94.85
68889;BME280;55930;47.412;8.790;2022-07-29T00:20:04;94554.06;;;15.81;95.60
68889;BME280;55930;47.412;8.790;2022-07-29T00:22:32;94557.72;;;15.84;95.82
68889;BME280;55930;47.412;8.790;2022-07-29T00:24:58;94548.47;;;15.85;95.84
68889;BME280;55930;47.412;8.790;2022-07-29T00:27:23;94557.22;;;15.85;94.78
68889;BME280;55930;47.412;8.790;2022-07-29T00:29:49;94558.91;;;15.94;93.75
68889;BME280;55930;47.412;8.790;2022-07-29T00:32:17;94551.81;;;16.02;92.97
68889;BME280;55930;47.412;8.790;2022-07-29T00:34:42;94555.50;;;15.93;95.66
68889;BME280;55930;47.412;8.790;2022-07-29T00:37:29;94549.69;;;15.84;95.42
68889;BME280;55930;47.412;8.790;2022-07-29T00:39:54;94544.59;;;15.86;95.77
68889;BME280;55930;47.412;8.790;2022-07-29T00:42:19;94541.22;;;15.80;95.64
68889;BME280;55930;47.412;8.790;2022-07-29T00:44:45;94542.22;;;15.71;95.17
68889;BME280;55930;47.412;8.790;2022-07-29T00:47:11;94538.53;;;15.80;94.43
68889;BME280;55930;47.412;8.790;2022-07-29T00:49:38;94539.03;;;15.73;94.95
68889;BME280;55930;47.412;8.790;2022-07-29T00:52:05;94540.47;;;15.79;94.82
68889;BME280;55930;47.412;8.790;2022-07-29T00:54:32;94537.31;;;15.75;95.03
68889;BME280;55930;47.412;8.790;2022-07-29T00:56:58;94535.66;;;15.66;95.44
68889;BME280;55930;47.412;8.790;2022-07-29T00:59:25;94531.25;;;15.75;95.39
68889;BME280;55930;47.412;8.790;2022-07-29T01:01:50;94529.81;;;15.68;95.66
68889;BME280;55930;47.412;8.790;2022-07-29T01:04:16;94525.41;;;15.76;95.30
68889;BME280;55930;47.412;8.790;2022-07-29T01:06:42;94521.06;;;15.67;95.71
68889;BME280;55930;47.412;8.790;2022-07-29T01:09:09;94527.38;;;15.70;95.72
68889;BME280;55930;47.412;8.790;2022-07-29T01:11:35;94521.03;;;15.79;94.98
68889;BME280;55930;47.412;8.790;2022-07-29T01:14:01;94526.13;;;15.77;96.15
68889;BME280;55930;47.412;8.790;2022-07-29T01:16:31;94514.00;;;15.64;96.24
68889;BME280;55930;47.412;8.790;2022-07-29T01:19:07;94511.06;;;15.79;95.20
68889;BME280;55930;47.412;8.790;2022-07-29T01:26:47;94511.06;;;15.74;95.21
68889;BME280;55930;47.412;8.790;2022-07-29T01:32:02;94509.59;;;15.73;95.56
68889;BME280;55930;47.412;8.790;2022-07-29T01:35:15;94508.94;;;15.61;95.81
68889;BME280;55930;47.412;8.790;2022-07-29T01:37:38;94503.06;;;15.68;96.78
68889;BME280;55930;47.412;8.790;2022-07-29T01:40:09;94496.03;;;15.65;97.62
68889;BME280;55930;47.412;8.790;2022-07-29T01:42:42;94501.53;;;15.84;96.07
68889;BME280;55930;47.412;8.790;2022-07-29T01:45:14;94497.88;;;15.87;94.87
68889;BME280;55930;47.412;8.790;2022-07-29T01:47:57;94494.72;;;15.83;95.70
68889;BME280;55930;47.412;8.790;2022-07-29T01:50:34;94498.81;;;15.95;94.71
68889;BME280;55930;47.412;8.790;2022-07-29T01:53:03;94496.88;;;15.90;96.23
68889;BME280;55930;47.412;8.790;2022-07-29T01:55:33;94501.25;;;15.93;95.75
68889;BME280;55930;47.412;8.790;2022-07-29T01:58:00;94506.31;;;16.02;95.68
68889;BME280;55930;47.412;8.790;2022-07-29T02:00:29;94509.72;;;16.02;95.18
68889;BME280;55930;47.412;8.790;2022-07-29T02:02:59;94508.00;;;16.05;95.88
68889;BME280;55930;47.412;8.790;2022-07-29T02:05:27;94502.91;;;16.01;96.06
68889;BME280;55930;47.412;8.790;2022-07-29T02:07:55;94504.09;;;16.06;95.23
68889;BME280;55930;47.412;8.790;2022-07-29T02:10:24;94503.88;;;16.04;94.80
68889;BME280;55930;47.412;8.790;2022-07-29T02:12:51;94497.31;;;15.99;94.86
68889;BME280;55930;47.412;8.790;2022-07-29T02:15:19;94491.53;;;15.90;96.39
68889;BME280;55930;47.412;8.790;2022-07-29T02:17:57;94498.09;;;15.89;96.35
68889;BME280;55930;47.412;8.790;2022-07-29T02:20:25;94511.25;;;15.81;95.18
68889;BME280;55930;47.412;8.790;2022-07-29T02:22:52;94505.47;;;15.77;94.93
68889;BME280;55930;47.412;8.790;2022-07-29T02:25:21;94507.66;;;15.73;94.41
68889;BME280;55930;47.412;8.790;2022-07-29T02:27:48;94512.81;;;15.60;95.33
68889;BME280;55930;47.412;8.790;2022-07-29T02:30:18;94510.63;;;15.58;95.07
68889;BME280;55930;47.412;8.790;2022-07-29T02:32:44;94517.94;;;15.58;95.37
68889;BME280;55930;47.412;8.790;2022-07-29T02:35:13;94514.53;;;15.63;94.67
68889;BME280;55930;47.412;8.790;2022-07-29T02:37:40;94511.84;;;15.52;95.51
68889;BME280;55930;47.412;8.790;2022-07-29T02:40:09;94508.75;;;15.37;95.70
68889;BME280;55930;47.412;8.790;2022-07-29T02:42:37;94512.88;;;15.38;95.75
68889;BME280;55930;47.412;8.790;2022-07-29T02:45:05;94503.91;;;15.18;96.92
68889;BME280;55930;47.412;8.790;2022-07-29T02:47:36;94516.28;;;15.27;96.45
68889;BME280;55930;47.412;8.790;2022-07-29T02:50:12;94512.41;;;15.17;97.05
68889;BME280;55930;47.412;8.790;2022-07-29T02:52:41;94509.72;;;15.28;96.71
68889;BME280;55930;47.412;8.790;2022-07-29T02:55:16;94510.69;;;15.25;96.42
68889;BME280;55930;47.412;8.790;2022-07-29T02:57:46;94503.44;;;15.20;96.63
68889;BME280;55930;47.412;8.790;2022-07-29T03:00:14;94511.72;;;15.16;96.53
68889;BME280;55930;47.412;8.790;2022-07-29T03:02:44;94507.09;;;15.11;97.33
68889;BME280;55930;47.412;8.790;2022-07-29T03:05:15;94507.84;;;15.06;98.06
68889;BME280;55930;47.412;8.790;2022-07-29T03:07:46;94506.13;;;15.03;97.76
68889;BME280;55930;47.412;8.790;2022-07-29T03:10:12;94511.75;;;15.00;97.67
68889;BME280;55930;47.412;8.790;2022-07-29T03:12:39;94500.06;;;14.86;97.94
68889;BME280;55930;47.412;8.790;2022-07-29T03:15:06;94506.88;;;14.92;97.99
68889;BME280;55930;47.412;8.790;2022-07-29T03:17:31;94513.66;;;15.05;97.30
68889;BME280;55930;47.412;8.790;2022-07-29T03:19:58;94513.66;;;15.16;96.61
68889;BME280;55930;47.412;8.790;2022-07-29T03:22:24;94509.53;;;15.15;96.82
68889;BME280;55930;47.412;8.790;2022-07-29T03:24:50;94513.88;;;15.12;97.18
68889;BME280;55930;47.412;8.790;2022-07-29T03:27:15;94513.66;;;15.16;96.25
68889;BME280;55930;47.412;8.790;2022-07-29T03:29:41;94518.03;;;15.08;97.03
68889;BME280;55930;47.412;8.790;2022-07-29T03:32:06;94514.59;;;15.18;96.43
68889;BME280;55930;47.412;8.790;2022-07-29T03:34:32;94522.84;;;15.26;95.29
68889;BME280;55930;47.412;8.790;2022-07-29T03:36:58;94513.88;;;15.23;95.77
68889;BME280;55930;47.412;8.790;2022-07-29T03:39:27;94523.59;;;15.21;96.25
68889;BME280;55930;47.412;8.790;2022-07-29T03:41:56;94530.13;;;15.25;96.59
68889;BME280;55930;47.412;8.790;2022-07-29T03:44:23;94540.34;;;15.27;96.54
68889;BME280;55930;47.412;8.790;2022-07-29T03:46:51;94545.94;;;15.40;94.33
68889;BME280;55930;47.412;8.790;2022-07-29T03:49:19;94557.31;;;15.52;93.79
68889;BME280;55930;47.412;8.790;2022-07-29T03:51:47;94557.50;;;15.76;89.72
68889;BME280;55930;47.412;8.790;2022-07-29T03:54:12;94559.41;;;15.87;89.23
68889;BME280;55930;47.412;8.790;2022-07-29T03:56:41;94562.31;;;15.89;90.63
68889;BME280;55930;47.412;8.790;2022-07-29T03:59:07;94558.19;;;15.82;93.46
68889;BME280;55930;47.412;8.790;2022-07-29T04:01:34;94558.16;;;15.93;92.96
68889;BME280;55930;47.412;8.790;2022-07-29T04:04:01;94549.38;;;15.98;91.13
68889;BME280;55930;47.412;8.790;2022-07-29T04:06:26;94550.75;;;16.16;90.08
68889;BME280;55930;47.412;8.790;2022-07-29T04:08:52;94551.16;;;16.31;87.84
68889;BME280;55930;47.412;8.790;2022-07-29T04:11:19;94561.03;;;16.48;87.46
68889;BME280;55930;47.412;8.790;2022-07-29T04:13:45;94555.72;;;16.42;89.29
68889;BME280;55930;47.412;8.790;2022-07-29T04:16:10;94549.72;;;16.30;91.32
68889;BME280;55930;47.412;8.790;2022-07-29T04:18:36;94550.22;;;16.23;93.37
68889;BME280;55930;47.412;8.790;2022-07-29T04:21:01;94548.38;;;16.07;96.53
68889;BME280;55930;47.412;8.790;2022-07-29T04:23:29;94549.06;;;16.13;93.19
68889;BME280;55930;47.412;8.790;2022-07-29T04:25:57;94547.31;;;16.21;93.84
68889;BME280;55930;47.412;8.790;2022-07-29T04:28:23;94528.91;;;16.12;93.48
68889;BME280;55930;47.412;8.790;2022-07-29T04:30:49;94534.13;;;16.29;92.46
68889;BME280;55930;47.412;8.790;2022-07-29T04:33:14;94541.19;;;16.32;93.69
68889;BME280;55930;47.412;8.790;2022-07-29T04:35:40;94544.00;;;16.10;94.35
68889;BME280;55930;47.412;8.790;2022-07-29T04:38:08;94545.88;;;16.20;94.61
68889;BME280;55930;47.412;8.790;2022-07-29T04:40:33;94545.59;;;16.24;94.69
68889;BME280;55930;47.412;8.790;2022-07-29T04:43:00;94543.41;;;16.28;95.62
68889;BME280;55930;47.412;8.790;2022-07-29T04:45:26;94545.22;;;16.50;93.45
68889;BME280;55930;47.412;8.790;2022-07-29T04:47:52;94544.59;;;16.32;94.51
68889;BME280;55930;47.412;8.790;2022-07-29T04:50:19;94544.53;;;16.38;95.60
68889;BME280;55930;47.412;8.790;2022-07-29T04:52:45;94534.94;;;16.59;90.30
68889;BME280;55930;47.412;8.790;2022-07-29T04:55:10;94537.00;;;16.77;89.31
68889;BME280;55930;47.412;8.790;2022-07-29T04:57:36;94535.97;;;16.86;88.86
68889;BME280;55930;47.412;8.790;2022-07-29T05:00:02;94542.03;;;16.87;89.68
68889;BME280;55930;47.412;8.790;2022-07-29T05:02:28;94540.00;;;16.98;89.12
68889;BME280;55930;47.412;8.790;2022-07-29T05:04:53;94521.28;;;16.93;86.98
68889;BME280;55930;47.412;8.790;2022-07-29T05:07:18;94521.09;;;16.85;92.10
68889;BME280;55930;47.412;8.790;2022-07-29T05:09:44;94516.44;;;16.91;91.31
68889;BME280;55930;47.412;8.790;2022-07-29T05:12:09;94515.41;;;17.00;88.54
68889;BME280;55930;47.412;8.790;2022-07-29T05:14:35;94520.44;;;16.79;91.25
68889;BME280;55930;47.412;8.790;2022-07-29T05:17:00;94521.63;;;16.83;92.15
68889;BME280;55930;47.412;8.790;2022-07-29T05:19:25;94522.75;;;16.94;92.21
68889;BME280;55930;47.412;8.790;2022-07-29T05:21:51;94517.34;;;16.99;91.52
68889;BME280;55930;47.412;8.790;2022-07-29T05:24:16;94517.88;;;16.92;91.88
68889;BME280;55930;47.412;8.790;2022-07-29T05:26:42;94533.28;;;16.86;92.50
68889;BME280;55930;47.412;8.790;2022-07-29T05:29:07;94534.34;;;17.02;91.78
68889;BME280;55930;47.412;8.790;2022-07-29T05:31:33;94529.03;;;17.26;90.52
68889;BME280;55930;47.412;8.790;2022-07-29T05:33:59;94530.81;;;17.42;90.59
68889;BME280;55930;47.412;8.790;2022-07-29T05:36:24;94527.97;;;17.35;90.28
68889;BME280;55930;47.412;8.790;2022-07-29T05:38:49;94526.97;;;17.38;90.94
68889;BME280;55930;47.412;8.790;2022-07-29T05:41:17;94531.63;;;17.56;90.30
68889;BME280;55930;47.412;8.790;2022-07-29T05:43:42;94533.81;;;17.63;87.06
68889;BME280;55930;47.412;8.790;2022-07-29T05:46:08;94541.81;;;17.87;87.45
68889;BME280;55930;47.412;8.790;2022-07-29T05:48:33;94539.09;;;17.69;88.61
68889;BME280;55930;47.412;8.790;2022-07-29T05:50:58;94536.16;;;17.91;84.46
68889;BME280;55930;47.412;8.790;2022-07-29T05:53:24;94536.00;;;18.21;81.96
68889;BME280;55930;47.412;8.790;2022-07-29T05:55:50;94545.00;;;18.42;84.08
68889;BME280;55930;47.412;8.790;2022-07-29T05:58:16;94543.75;;;18.62;83.69
68889;BME280;55930;47.412;8.790;2022-07-29T06:00:42;94538.97;;;18.73;83.76
68889;BME280;55930;47.412;8.790;2022-07-29T06:03:07;94533.22;;;18.96;84.39
68889;BME280;55930;47.412;8.790;2022-07-29T06:05:32;94540.41;;;19.06;81.95
68889;BME280;55930;47.412;8.790;2022-07-29T06:07:58;94552.28;;;19.11;82.27
68889;BME280;55930;47.412;8.790;2022-07-29T06:10:23;94548.13;;;19.68;79.44
68889;BME280;55930;47.412;8.790;2022-07-29T06:12:49;94545.81;;;19.99;74.61
68889;BME280;55930;47.412;8.790;2022-07-29T06:15:15;94549.63;;;20.16;78.49
68889;BME280;55930;47.412;8.790;2022-07-29T06:17:42;94546.47;;;20.73;77.69
68889;BME280;55930;47.412;8.790;2022-07-29T06:20:08;94550.09;;;21.17;69.86
68889;BME280;55930;47.412;8.790;2022-07-29T06:22:34;94549.56;;;21.39;70.46
68889;BME280;55930;47.412;8.790;2022-07-29T06:25:03;94554.88;;;21.52;68.70
68889;BME280;55930;47.412;8.790;2022-07-29T06:27:28;94564.78;;;21.57;70.77
68889;BME280;55930;47.412;8.790;2022-07-29T06:29:56;94556.25;;;20.83;75.20
68889;BME280;55930;47.412;8.790;2022-07-29T06:32:21;94568.91;;;20.34;78.25
68889;BME280;55930;47.412;8.790;2022-07-29T06:34:47;94570.38;;;20.08;77.86
68889;BME280;55930;47.412;8.790;2022-07-29T06:37:12;94572.72;;;20.12;77.84
68889;BME280;55930;47.412;8.790;2022-07-29T06:39:38;94573.91;;;19.77;78.60
68889;BME280;55930;47.412;8.790;2022-07-29T06:42:04;94577.09;;;19.88;79.17
68889;BME280;55930;47.412;8.790;2022-07-29T06:44:29;94583.94;;;20.03;78.67
68889;BME280;55930;47.412;8.790;2022-07-29T06:46:55;94589.19;;;20.21;77.66
68889;BME280;55930;47.412;8.790;2022-07-29T06:49:21;94593.75;;;20.13;77.03
68889;BME280;55930;47.412;8.790;2022-07-29T06:51:47;94600.72;;;19.96;77.55
68889;BME280;55930;47.412;8.790;2022-07-29T06:54:12;94617.09;;;19.98;77.83
68889;BME280;55930;47.412;8.790;2022-07-29T06:56:37;94624.25;;;19.95;79.45
68889;BME280;55930;47.412;8.790;2022-07-29T06:59:07;94629.56;;;19.56;79.01
68889;BME280;55930;47.412;8.790;2022-07-29T07:01:33;94631.81;;;19.38;80.56
68889;BME280;55930;47.412;8.790;2022-07-29T07:03:59;94654.78;;;19.07;78.02
68889;BME280;55930;47.412;8.790;2022-07-29T07:06:24;94668.66;;;18.93;84.35
68889;BME280;55930;47.412;8.790;2022-07-29T07:08:49;94656.91;;;18.77;86.06
68889;BME280;55930;47.412;8.790;2022-07-29T07:11:15;94669.84;;;18.17;83.11
68889;BME280;55930;47.412;8.790;2022-07-29T07:13:40;94677.50;;;18.31;85.69
68889;BME280;55930;47.412;8.790;2022-07-29T07:16:05;94680.69;;;18.30;87.02
68889;BME280;55930;47.412;8.790;2022-07-29T07:18:31;94678.34;;;18.21;87.65
68889;BME280;55930;47.412;8.790;2022-07-29T07:20:57;94676.28;;;18.08;86.54
68889;BME280;55930;47.412;8.790;2022-07-29T07:23:22;94675.66;;;18.21;90.02
68889;BME280;55930;47.412;8.790;2022-07-29T07:25:48;94676.00;;;18.12;91.92
68889;BME280;55930;47.412;8.790;2022-07-29T07:28:13;94685.22;;;17.92;93.20
68889;BME280;55930;47.412;8.790;2022-07-29T07:30:39;94678.63;;;17.93;93.11
68889;BME280;55930;47.412;8.790;2022-07-29T07:33:04;94671.66;;;17.84;95.30
68889;BME280;55930;47.412;8.790;2022-07-29T07:35:30;94671.81;;;17.92;94.14
68889;BME280;55930;47.412;8.790;2022-07-29T07:37:58;94668.41;;;17.91;94.12
68889;BME280;55930;47.412;8.790;2022-07-29T07:40:24;94661.50;;;17.96;91.71
68889;BME280;55930;47.412;8.790;2022-07-29T07:42:49;94659.38;;;18.13;90.94
68889;BME280;55930;47.412;8.790;2022-07-29T07:45:14;94660.25;;;18.03;92.62
68889;BME280;55930;47.412;8.790;2022-07-29T07:47:41;94657.56;;;18.03;93.09
68889;BME280;55930;47.412;8.790;2022-07-29T07:50:09;94652.00;;;18.19;91.47
68889;BME280;55930;47.412;8.790;2022-07-29T07:52:51;94639.75;;;18.43;90.46
68889;BME280;55930;47.412;8.790;2022-07-29T07:55:18;94639.91;;;18.88;89.71
68889;BME280;55930;47.412;8.790;2022-07-29T07:57:44;94637.97;;;19.20;90.15
68889;BME280;55930;47.412;8.790;2022-07-29T08:00:11;94641.50;;;19.73;86.82
68889;BME280;55930;47.412;8.790;2022-07-29T08:02:37;94638.94;;;20.20;84.47
68889;BME280;55930;47.412;8.790;2022-07-29T08:05:03;94643.63;;;20.80;82.68
68889;BME280;55930;47.412;8.790;2022-07-29T08:07:28;94650.13;;;21.19;77.92
68889;BME280;55930;47.412;8.790;2022-07-29T08:09:54;94657.75;;;21.07;74.39
68889;BME280;55930;47.412;8.790;2022-07-29T08:12:22;94659.50;;;21.05;74.15
68889;BME280;55930;47.412;8.790;2022-07-29T08:14:49;94653.63;;;20.93;76.76
68889;BME280;55930;47.412;8.790;2022-07-29T08:17:15;94655.88;;;20.68;82.84
68889;BME280;55930;47.412;8.790;2022-07-29T08:19:40;94655.69;;;20.66;83.47
68889;BME280;55930;47.412;8.790;2022-07-29T08:22:08;94658.63;;;20.42;83.57
68889;BME280;55930;47.412;8.790;2022-07-29T08:24:33;94670.13;;;20.29;86.16
68889;BME280;55930;47.412;8.790;2022-07-29T08:27:08;94678.53;;;20.25;82.23
68889;BME280;55930;47.412;8.790;2022-07-29T08:29:34;94671.06;;;20.45;82.18
68889;BME280;55930;47.412;8.790;2022-07-29T08:31:59;94670.75;;;20.22;81.05
68889;BME280;55930;47.412;8.790;2022-07-29T08:34:25;94670.44;;;20.12;81.60
68889;BME280;55930;47.412;8.790;2022-07-29T08:36:50;94670.03;;;19.95;80.83
68889;BME280;55930;47.412;8.790;2022-07-29T08:39:16;94670.00;;;19.69;86.17
68889;BME280;55930;47.412;8.790;2022-07-29T08:41:42;94662.59;;;19.56;84.97
68889;BME280;55930;47.412;8.790;2022-07-29T08:44:08;94669.47;;;19.38;86.19
68889;BME280;55930;47.412;8.790;2022-07-29T08:46:37;94672.69;;;19.37;87.02
68889;BME280;55930;47.412;8.790;2022-07-29T08:49:04;94680.63;;;19.29;87.79
68889;BME280;55930;47.412;8.790;2022-07-29T08:51:30;94685.66;;;19.20;89.81
68889;BME280;55930;47.412;8.790;2022-07-29T08:53:56;94684.06;;;19.11;89.23
68889;BME280;55930;47.412;8.790;2022-07-29T08:56:22;94675.22;;;18.97;86.96
68889;BME280;55930;47.412;8.790;2022-07-29T08:58:48;94674.59;;;19.23;84.80
68889;BME280;55930;47.412;8.790;2022-07-29T09:01:20;94679.28;;;19.55;84.57
68889;BME280;55930;47.412;8.790;2022-07-29T09:03:46;94677.34;;;19.68;85.12
68889;BME280;55930;47.412;8.790;2022-07-29T09:06:18;94675.41;;;20.08;83.66
68889;BME280;55930;47.412;8.790;2022-07-29T09:08:46;94678.53;;;20.25;84.81
68889;BME280;55930;47.412;8.790;2022-07-29T09:11:13;94679.44;;;20.54;81.50
68889;BME280;55930;47.412;8.790;2022-07-29T09:13:39;94680.28;;;20.96;77.05
68889;BME280;55930;47.412;8.790;2022-07-29T09:16:05;94682.00;;;21.20;74.21
68889;BME280;55930;47.412;8.790;2022-07-29T09:18:37;94681.59;;;21.99;71.31
68889;BME280;55930;47.412;8.790;2022-07-29T09:21:04;94676.75;;;23.28;68.09
68889;BME280;55930;47.412;8.790;2022-07-29T09:24:09;94675.13;;;24.17;59.09
68889;BME280;55930;47.412;8.790;2022-07-29T09:26:40;94671.84;;;25.29;61.10
68889;BME280;55930;47.412;8.790;2022-07-29T09:29:10;94676.25;;;25.41;55.71
68889;BME280;55930;47.412;8.790;2022-07-29T09:31:42;94672.84;;;24.61;55.57
68889;BME280;55930;47.412;8.790;2022-07-29T09:34:08;94673.84;;;24.33;58.54
68889;BME280;55930;47.412;8.790;2022-07-29T09:39:07;94673.13;;;23.26;63.03
68889;BME280;55930;47.412;8.790;2022-07-29T09:41:49;94667.41;;;22.78;57.73
68889;BME280;55930;47.412;8.790;2022-07-29T09:44:18;94668.81;;;23.38;56.91
68889;BME280;55930;47.412;8.790;2022-07-29T09:47:00;94675.53;;;23.90;55.23
68889;BME280;55930;47.412;8.790;2022-07-29T09:49:33;94674.03;;;23.36;57.19
68889;BME280;55930;47.412;8.790;2022-07-29T09:52:03;94667.47;;;23.01;59.35
68889;BME280;55930;47.412;8.790;2022-07-29T09:54:29;94675.06;;;23.03;65.89
68889;BME280;55930;47.412;8.790;2022-07-29T09:56:59;94665.50;;;23.09;60.99
68889;BME280;55930;47.412;8.790;2022-07-29T09:59:25;94666.69;;;23.52;64.23
68889;BME280;55930;47.412;8.790;2022-07-29T10:01:52;94669.41;;;22.85;63.53
68889;BME280;55930;47.412;8.790;2022-07-29T10:04:18;94669.50;;;23.31;61.70
68889;BME280;55930;47.412;8.790;2022-07-29T10:06:59;94660.13;;;23.40;60.51
68889;BME280;55930;47.412;8.790;2022-07-29T10:09:25;94659.41;;;23.32;60.35
68889;BME280;55930;47.412;8.790;2022-07-29T10:12:11;94668.28;;;23.55;58.70
68889;BME280;55930;47.412;8.790;2022-07-29T10:14:39;94663.25;;;23.59;60.06
68889;BME280;55930;47.412;8.790;2022-07-29T10:17:06;94664.13;;;23.92;59.86
68889;BME280;55930;47.412;8.790;2022-07-29T10:19:33;94665.19;;;24.27;57.71
68889;BME280;55930;47.412;8.790;2022-07-29T10:21:59;94652.94;;;23.65;58.05
68889;BME280;55930;47.412;8.790;2022-07-29T10:24:30;94654.16;;;24.32;55.82
68889;BME280;55930;47.412;8.790;2022-07-29T10:26:56;94644.34;;;24.45;52.64
68889;BME280;55930;47.412;8.790;2022-07-29T10:29:23;94645.38;;;24.57;52.97
68889;BME280;55930;47.412;8.790;2022-07-29T10:32:06;94639.44;;;24.91;51.37
68889;BME280;55930;47.412;8.790;2022-07-29T10:37:57;94643.19;;;25.60;49.37
68889;BME280;55930;47.412;8.790;2022-07-29T10:43:23;94640.13;;;24.99;51.42
68889;BME280;55930;47.412;8.790;2022-07-29T10:45:57;94643.50;;;25.39;49.08
68889;BME280;55930;47.412;8.790;2022-07-29T10:48:24;94644.25;;;26.24;47.81
68889;BME280;55930;47.412;8.790;2022-07-29T10:53:21;94649.69;;;25.57;49.17
68889;BME280;55930;47.412;8.790;2022-07-29T10:55:46;94631.69;;;26.46;48.41
68889;BME280;55930;47.412;8.790;2022-07-29T10:58:20;94627.94;;;26.41;45.58
68889;BME280;55930;47.412;8.790;2022-07-29T11:00:47;94624.94;;;27.45;44.44
68889;BME280;55930;47.412;8.790;2022-07-29T11:03:45;94634.34;;;27.61;42.76
68889;BME280;55930;47.412;8.790;2022-07-29T11:06:12;94630.97;;;27.99;42.99
68889;BME280;55930;47.412;8.790;2022-07-29T11:08:38;94634.81;;;30.47;38.45
68889;BME280;55930;47.412;8.790;2022-07-29T11:16:13;94634.28;;;32.33;33.57
68889;BME280;55930;47.412;8.790;2022-07-29T11:21:46;94629.44;;;28.53;39.05
68889;BME280;55930;47.412;8.790;2022-07-29T11:24:23;94637.16;;;28.96;38.85
68889;BME280;55930;47.412;8.790;2022-07-29T11:27:09;94632.41;;;28.00;42.64
68889;BME280;55930;47.412;8.790;2022-07-29T11:29:47;94632.22;;;27.42;43.19
68889;BME280;55930;47.412;8.790;2022-07-29T11:32:14;94633.16;;;27.54;43.67
68889;BME280;55930;47.412;8.790;2022-07-29T11:34:41;94629.16;;;27.65;43.37
68889;BME280;55930;47.412;8.790;2022-07-29T11:45:10;94632.28;;;26.71;47.71
68889;BME280;55930;47.412;8.790;2022-07-29T11:47:57;94630.56;;;26.93;45.85
68889;BME280;55930;47.412;8.790;2022-07-29T11:50:35;94637.84;;;26.46;43.69
68889;BME280;55930;47.412;8.790;2022-07-29T11:53:05;94631.44;;;26.51;43.86
68889;BME280;55930;47.412;8.790;2022-07-29T11:55:36;94629.59;;;26.19;44.81
68889;BME280;55930;47.412;8.790;2022-07-29T11:58:02;94626.63;;;25.90;47.41
68889;BME280;55930;47.412;8.790;2022-07-29T12:00:35;94632.97;;;26.45;45.55
68889;BME280;55930;47.412;8.790;2022-07-29T12:03:05;94624.78;;;26.10;44.76
68889;BME280;55930;47.412;8.790;2022-07-29T12:05:43;94626.84;;;26.02;46.40
68889;BME280;55930;47.412;8.790;2022-07-29T12:08:18;94623.78;;;25.64;46.06
68889;BME280;55930;47.412;8.790;2022-07-29T12:10:46;94628.53;;;25.55;47.90
68889;BME280;55930;47.412;8.790;2022-07-29T12:13:15;94625.22;;;25.65;48.84
68889;BME280;55930;47.412;8.790;2022-07-29T12:15:42;94622.31;;;26.05;49.41
68889;BME280;55930;47.412;8.790;2022-07-29T12:18:17;94622.28;;;25.45;50.32
68889;BME280;55930;47.412;8.790;2022-07-29T12:20:44;94623.81;;;25.81;49.48
68889;BME280;55930;47.412;8.790;2022-07-29T12:23:10;94621.06;;;25.64;49.03
68889;BME280;55930;47.412;8.790;2022-07-29T12:25:43;94621.09;;;25.56;49.95
68889;BME280;55930;47.412;8.790;2022-07-29T12:28:12;94619.38;;;25.43;49.40
68889;BME280;55930;47.412;8.790;2022-07-29T12:33:19;94628.03;;;25.25;49.25
68889;BME280;55930;47.412;8.790;2022-07-29T12:35:50;94633.72;;;24.79;50.92
68889;BME280;55930;47.412;8.790;2022-07-29T12:38:17;94627.13;;;24.97;50.05
68889;BME280;55930;47.412;8.790;2022-07-29T12:40:43;94637.59;;;25.01;50.40
68889;BME280;55930;47.412;8.790;2022-07-29T12:43:11;94637.63;;;24.93;49.99
68889;BME280;55930;47.412;8.790;2022-07-29T12:45:41;94638.06;;;25.39;49.85
68889;BME280;55930;47.412;8.790;2022-07-29T12:48:07;94637.34;;;25.14;50.51
68889;BME280;55930;47.412;8.790;2022-07-29T12:50:36;94644.81;;;25.31;51.49
68889;BME280;55930;47.412;8.790;2022-07-29T12:53:10;94648.31;;;25.24;51.04
68889;BME280;55930;47.412;8.790;2022-07-29T12:55:45;94660.84;;;24.24;55.88
68889;BME280;55930;47.412;8.790;2022-07-29T12:58:25;94663.09;;;24.65;53.79
68889;BME280;55930;47.412;8.790;2022-07-29T13:03:27;94661.91;;;24.28;55.60
68889;BME280;55930;47.412;8.790;2022-07-29T13:05:52;94656.22;;;24.64;55.67
68889;BME280;55930;47.412;8.790;2022-07-29T13:08:18;94668.06;;;24.29;56.22
68889;BME280;55930;47.412;8.790;2022-07-29T13:10:45;94665.88;;;24.35;57.30
68889;BME280;55930;47.412;8.790;2022-07-29T13:13:14;94664.66;;;24.06;58.80
68889;BME280;55930;47.412;8.790;2022-07-29T13:15:42;94661.81;;;23.58;58.94
68889;BME280;55930;47.412;8.790;2022-07-29T13:18:31;94662.31;;;23.41;59.44
68889;BME280;55930;47.412;8.790;2022-07-29T13:21:11;94671.00;;;23.55;60.41
68889;BME280;55930;47.412;8.790;2022-07-29T13:23:36;94672.41;;;23.41;61.90
68889;BME280;55930;47.412;8.790;2022-07-29T13:26:10;94671.31;;;23.28;62.68
68889;BME280;55930;47.412;8.790;2022-07-29T13:28:37;94680.47;;;23.03;63.69
68889;BME280;55930;47.412;8.790;2022-07-29T13:31:03;94688.19;;;22.91;66.10
68889;BME280;55930;47.412;8.790;2022-07-29T13:33:30;94688.22;;;22.99;66.15
68889;BME280;55930;47.412;8.790;2022-07-29T13:35:55;94686.84;;;23.20;66.54
68889;BME280;55930;47.412;8.790;2022-07-29T13:38:20;94693.81;;;23.01;68.40
68889;BME280;55930;47.412;8.790;2022-07-29T13:40:46;94696.72;;;23.03;68.37
68889;BME280;55930;47.412;8.790;2022-07-29T13:43:12;94698.88;;;23.04;70.66
68889;BME280;55930;47.412;8.790;2022-07-29T13:45:37;94701.38;;;22.95;70.34